sensor_id;sensor_type;location;lat;lon;timestamp;P1;durP1;ratioP1;P2;durP2;ratioP2
7941;SDS011;4016;50.758;7.150;2023-02-23T00:02:41;16.90;;;11.87;;
7941;SDS011;4016;50.758;7.150;2023-02-23T00:07:43;16.97;;;11.53;;
7941;SDS011;4016;50.758;7.150;2023-02-23T00:12:44;19.27;;;12.77;;
7941;SDS011;4016;50.758;7.150;2023-02-23T00:17:44;16.93;;;11.37;;
7941;SDS011;4016;50.758;7.150;2023-02-23T00:22:46;21.47;;;13.33;;
7941;SDS011;4016;50.758;7.150;2023-02-23T00:27:47;18.10;;;12.47;;
7941;SDS011;4016;50.758;7.150;2023-02-23T00:32:48;15.23;;;12.40;;
7941;SDS011;4016;50.758;7.150;2023-02-23T00:37:49;19.27;;;13.37;;
7941;SDS011;4016;50.758;7.150;2023-02-23T00:42:49;18.87;;;13.30;;
7941;SDS011;4016;50.758;7.150;2023-02-23T00:47:51;18.33;;;12.87;;
7941;SDS011;4016;50.758;7.150;2023-02-23T00:52:51;16.00;;;12.07;;
7941;SDS011;4016;50.758;7.150;2023-02-23T00:57:52;16.03;;;11.53;;
7941;SDS011;4016;50.758;7.150;2023-02-23T01:02:52;16.70;;;11.60;;
7941;SDS011;4016;50.758;7.150;2023-02-23T01:07:52;17.13;;;12.23;;
7941;SDS011;4016;50.758;7.150;2023-02-23T01:12:53;14.80;;;11.13;;
7941;SDS011;4016;50.758;7.150;2023-02-23T01:17:53;16.33;;;11.47;;
7941;SDS011;4016;50.758;7.150;2023-02-23T01:22:53;15.10;;;10.87;;
7941;SDS011;4016;50.758;7.150;2023-02-23T01:27:54;15.13;;;11.63;;
7941;SDS011;4016;50.758;7.150;2023-02-23T01:32:55;15.53;;;11.43;;
7941;SDS011;4016;50.758;7.150;2023-02-23T01:37:55;15.40;;;12.03;;
7941;SDS011;4016;50.758;7.150;2023-02-23T01:43:06;17.17;;;12.43;;
7941;SDS011;4016;50.758;7.150;2023-02-23T01:48:17;17.50;;;12.60;;
7941;SDS011;4016;50.758;7.150;2023-02-23T01:53:20;17.37;;;11.60;;
7941;SDS011;4016;50.758;7.150;2023-02-23T01:58:23;16.43;;;12.90;;
7941;SDS011;4016;50.758;7.150;2023-02-23T02:03:29;15.40;;;12.57;;
7941;SDS011;4016;50.758;7.150;2023-02-23T02:08:33;19.23;;;12.93;;
7941;SDS011;4016;50.758;7.150;2023-02-23T02:13:42;17.97;;;12.93;;
7941;SDS011;4016;50.758;7.150;2023-02-23T02:23:52;19.90;;;13.70;;
7941;SDS011;4016;50.758;7.150;2023-02-23T02:51:30;18.40;;;12.17;;
7941;SDS011;4016;50.758;7.150;2023-02-23T02:56:39;16.23;;;12.03;;
7941;SDS011;4016;50.758;7.150;2023-02-23T03:01:41;17.10;;;11.80;;
7941;SDS011;4016;50.758;7.150;2023-02-23T03:07:01;17.20;;;11.70;;
7941;SDS011;4016;50.758;7.150;2023-02-23T03:12:41;20.10;;;13.57;;
7941;SDS011;4016;50.758;7.150;2023-02-23T03:18:26;14.53;;;11.57;;
7941;SDS011;4016;50.758;7.150;2023-02-23T03:24:14;15.03;;;10.90;;
7941;SDS011;4016;50.758;7.150;2023-02-23T03:35:23;14.90;;;12.00;;
7941;SDS011;4016;50.758;7.150;2023-02-23T03:40:44;16.27;;;11.40;;
7941;SDS011;4016;50.758;7.150;2023-02-23T03:46:07;14.63;;;11.43;;
7941;SDS011;4016;50.758;7.150;2023-02-23T03:51:30;14.77;;;11.33;;
7941;SDS011;4016;50.758;7.150;2023-02-23T03:56:53;18.63;;;12.00;;
7941;SDS011;4016;50.758;7.150;2023-02-23T04:02:16;13.10;;;10.40;;
7941;SDS011;4016;50.758;7.150;2023-02-23T04:07:36;13.20;;;10.53;;
7941;SDS011;4016;50.758;7.150;2023-02-23T04:13:06;16.97;;;12.23;;
7941;SDS011;4016;50.758;7.150;2023-02-23T04:18:14;15.60;;;10.63;;
7941;SDS011;4016;50.758;7.150;2023-02-23T04:23:16;16.87;;;12.07;;
7941;SDS011;4016;50.758;7.150;2023-02-23T04:28:17;16.60;;;11.70;;
7941;SDS011;4016;50.758;7.150;2023-02-23T04:33:18;17.63;;;11.80;;
7941;SDS011;4016;50.758;7.150;2023-02-23T04:38:21;17.07;;;12.27;;
7941;SDS011;4016;50.758;7.150;2023-02-23T04:43:22;15.47;;;11.57;;
7941;SDS011;4016;50.758;7.150;2023-02-23T04:48:22;20.60;;;15.57;;
7941;SDS011;4016;50.758;7.150;2023-02-23T04:53:24;22.17;;;17.00;;
7941;SDS011;4016;50.758;7.150;2023-02-23T04:58:25;26.43;;;18.43;;
7941;SDS011;4016;50.758;7.150;2023-02-23T05:03:26;32.70;;;19.10;;
7941;SDS011;4016;50.758;7.150;2023-02-23T05:08:26;28.83;;;21.37;;
7941;SDS011;4016;50.758;7.150;2023-02-23T05:13:26;33.03;;;21.63;;
7941;SDS011;4016;50.758;7.150;2023-02-23T05:18:27;29.60;;;21.77;;
7941;SDS011;4016;50.758;7.150;2023-02-23T05:23:27;29.63;;;20.03;;
7941;SDS011;4016;50.758;7.150;2023-02-23T05:28:28;29.00;;;19.37;;
7941;SDS011;4016;50.758;7.150;2023-02-23T05:33:29;31.27;;;21.50;;
7941;SDS011;4016;50.758;7.150;2023-02-23T05:38:30;27.77;;;19.37;;
7941;SDS011;4016;50.758;7.150;2023-02-23T05:43:31;32.10;;;21.33;;
7941;SDS011;4016;50.758;7.150;2023-02-23T05:48:31;33.77;;;21.60;;
7941;SDS011;4016;50.758;7.150;2023-02-23T05:53:32;36.27;;;22.10;;
7941;SDS011;4016;50.758;7.150;2023-02-23T05:58:33;34.20;;;21.50;;
7941;SDS011;4016;50.758;7.150;2023-02-23T06:03:34;34.50;;;21.50;;
7941;SDS011;4016;50.758;7.150;2023-02-23T06:08:34;33.20;;;23.13;;
7941;SDS011;4016;50.758;7.150;2023-02-23T06:13:34;39.17;;;24.47;;
7941;SDS011;4016;50.758;7.150;2023-02-23T06:18:35;33.33;;;22.23;;
7941;SDS011;4016;50.758;7.150;2023-02-23T06:23:35;34.90;;;21.93;;
7941;SDS011;4016;50.758;7.150;2023-02-23T06:28:36;32.73;;;23.87;;
7941;SDS011;4016;50.758;7.150;2023-02-23T06:33:37;38.30;;;24.93;;
7941;SDS011;4016;50.758;7.150;2023-02-23T06:38:37;36.63;;;24.03;;
7941;SDS011;4016;50.758;7.150;2023-02-23T06:43:37;31.47;;;23.67;;
7941;SDS011;4016;50.758;7.150;2023-02-23T06:48:38;29.97;;;20.23;;
7941;SDS011;4016;50.758;7.150;2023-02-23T06:53:38;33.33;;;22.07;;
7941;SDS011;4016;50.758;7.150;2023-02-23T06:58:39;31.03;;;21.13;;
7941;SDS011;4016;50.758;7.150;2023-02-23T07:03:41;29.43;;;19.67;;
7941;SDS011;4016;50.758;7.150;2023-02-23T07:08:42;29.43;;;21.50;;
7941;SDS011;4016;50.758;7.150;2023-02-23T07:13:42;29.80;;;21.00;;
7941;SDS011;4016;50.758;7.150;2023-02-23T07:18:43;36.77;;;22.73;;
7941;SDS011;4016;50.758;7.150;2023-02-23T07:23:43;30.23;;;21.90;;
7941;SDS011;4016;50.758;7.150;2023-02-23T07:28:43;29.23;;;18.70;;
7941;SDS011;4016;50.758;7.150;2023-02-23T07:33:44;31.30;;;20.93;;
7941;SDS011;4016;50.758;7.150;2023-02-23T07:38:44;30.50;;;20.07;;
7941;SDS011;4016;50.758;7.150;2023-02-23T07:43:44;30.53;;;19.57;;
7941;SDS011;4016;50.758;7.150;2023-02-23T07:48:45;29.77;;;19.60;;
7941;SDS011;4016;50.758;7.150;2023-02-23T07:53:45;30.80;;;19.23;;
7941;SDS011;4016;50.758;7.150;2023-02-23T07:58:46;28.17;;;18.60;;
7941;SDS011;4016;50.758;7.150;2023-02-23T08:03:46;29.17;;;18.83;;
7941;SDS011;4016;50.758;7.150;2023-02-23T08:08:48;30.67;;;18.83;;
7941;SDS011;4016;50.758;7.150;2023-02-23T08:13:49;29.90;;;19.57;;
7941;SDS011;4016;50.758;7.150;2023-02-23T08:18:49;27.97;;;19.27;;
7941;SDS011;4016;50.758;7.150;2023-02-23T08:23:49;31.57;;;21.13;;
7941;SDS011;4016;50.758;7.150;2023-02-23T08:28:50;31.40;;;19.77;;
7941;SDS011;4016;50.758;7.150;2023-02-23T08:33:51;30.30;;;19.20;;
7941;SDS011;4016;50.758;7.150;2023-02-23T08:38:52;26.77;;;19.60;;
7941;SDS011;4016;50.758;7.150;2023-02-23T08:43:57;28.60;;;17.00;;
7941;SDS011;4016;50.758;7.150;2023-02-23T08:48:57;28.97;;;18.60;;
7941;SDS011;4016;50.758;7.150;2023-02-23T08:53:57;29.17;;;18.13;;
7941;SDS011;4016;50.758;7.150;2023-02-23T08:58:58;28.87;;;18.37;;
7941;SDS011;4016;50.758;7.150;2023-02-23T09:03:58;27.07;;;17.50;;
7941;SDS011;4016;50.758;7.150;2023-02-23T09:08:59;29.83;;;19.03;;
7941;SDS011;4016;50.758;7.150;2023-02-23T09:14:00;30.77;;;18.10;;
7941;SDS011;4016;50.758;7.150;2023-02-23T09:19:00;25.97;;;17.40;;
7941;SDS011;4016;50.758;7.150;2023-02-23T09:24:02;26.60;;;18.03;;
7941;SDS011;4016;50.758;7.150;2023-02-23T09:29:02;28.60;;;18.37;;
7941;SDS011;4016;50.758;7.150;2023-02-23T09:34:03;25.00;;;16.73;;
7941;SDS011;4016;50.758;7.150;2023-02-23T09:39:03;31.47;;;17.17;;
7941;SDS011;4016;50.758;7.150;2023-02-23T09:49:35;24.10;;;16.07;;
7941;SDS011;4016;50.758;7.150;2023-02-23T09:54:39;28.47;;;17.40;;
7941;SDS011;4016;50.758;7.150;2023-02-23T09:59:40;29.43;;;18.57;;
7941;SDS011;4016;50.758;7.150;2023-02-23T10:04:42;28.23;;;16.50;;
7941;SDS011;4016;50.758;7.150;2023-02-23T10:15:11;25.50;;;17.43;;
7941;SDS011;4016;50.758;7.150;2023-02-23T10:20:27;23.63;;;15.13;;
7941;SDS011;4016;50.758;7.150;2023-02-23T10:25:45;21.57;;;15.93;;
7941;SDS011;4016;50.758;7.150;2023-02-23T10:30:48;22.67;;;15.70;;
7941;SDS011;4016;50.758;7.150;2023-02-23T10:35:49;20.77;;;14.43;;
7941;SDS011;4016;50.758;7.150;2023-02-23T10:40:59;25.40;;;15.50;;
7941;SDS011;4016;50.758;7.150;2023-02-23T10:46:00;18.50;;;13.80;;
7941;SDS011;4016;50.758;7.150;2023-02-23T10:51:01;18.30;;;13.23;;
7941;SDS011;4016;50.758;7.150;2023-02-23T10:56:07;19.43;;;13.07;;
7941;SDS011;4016;50.758;7.150;2023-02-23T11:01:21;18.50;;;13.40;;
7941;SDS011;4016;50.758;7.150;2023-02-23T11:06:44;16.97;;;11.97;;
7941;SDS011;4016;50.758;7.150;2023-02-23T11:11:54;17.20;;;12.43;;
7941;SDS011;4016;50.758;7.150;2023-02-23T11:16:57;18.63;;;12.30;;
7941;SDS011;4016;50.758;7.150;2023-02-23T11:21:59;22.67;;;13.33;;
7941;SDS011;4016;50.758;7.150;2023-02-23T11:27:00;16.00;;;10.57;;
7941;SDS011;4016;50.758;7.150;2023-02-23T11:32:12;15.90;;;11.37;;
7941;SDS011;4016;50.758;7.150;2023-02-23T11:42:18;14.43;;;11.37;;
7941;SDS011;4016;50.758;7.150;2023-02-23T11:47:24;16.10;;;12.93;;
7941;SDS011;4016;50.758;7.150;2023-02-23T11:52:25;17.07;;;12.33;;
7941;SDS011;4016;50.758;7.150;2023-02-23T11:57:28;19.93;;;12.87;;
7941;SDS011;4016;50.758;7.150;2023-02-23T12:02:29;16.87;;;11.43;;
7941;SDS011;4016;50.758;7.150;2023-02-23T12:17:52;22.30;;;14.03;;
7941;SDS011;4016;50.758;7.150;2023-02-23T12:22:59;20.60;;;14.37;;
7941;SDS011;4016;50.758;7.150;2023-02-23T12:28:09;23.07;;;16.57;;
7941;SDS011;4016;50.758;7.150;2023-02-23T12:33:19;20.10;;;14.37;;
7941;SDS011;4016;50.758;7.150;2023-02-23T12:49:42;23.10;;;14.13;;
7941;SDS011;4016;50.758;7.150;2023-02-23T12:54:48;24.90;;;15.73;;
7941;SDS011;4016;50.758;7.150;2023-02-23T13:00:03;16.57;;;12.73;;
7941;SDS011;4016;50.758;7.150;2023-02-23T13:05:25;21.37;;;14.37;;
7941;SDS011;4016;50.758;7.150;2023-02-23T13:10:33;20.07;;;14.23;;
7941;SDS011;4016;50.758;7.150;2023-02-23T13:15:45;22.47;;;14.53;;
7941;SDS011;4016;50.758;7.150;2023-02-23T13:22:23;23.87;;;15.13;;
7941;SDS011;4016;50.758;7.150;2023-02-23T13:31:59;25.80;;;15.70;;
7941;SDS011;4016;50.758;7.150;2023-02-23T13:37:02;34.07;;;16.93;;
7941;SDS011;4016;50.758;7.150;2023-02-23T13:52:49;23.37;;;12.87;;
7941;SDS011;4016;50.758;7.150;2023-02-23T13:58:04;25.90;;;12.40;;
7941;SDS011;4016;50.758;7.150;2023-02-23T14:03:20;20.83;;;11.87;;
7941;SDS011;4016;50.758;7.150;2023-02-23T14:08:32;21.13;;;11.63;;
7941;SDS011;4016;50.758;7.150;2023-02-23T14:13:39;21.57;;;12.07;;
7941;SDS011;4016;50.758;7.150;2023-02-23T14:19:29;25.53;;;12.77;;
7941;SDS011;4016;50.758;7.150;2023-02-23T14:24:35;23.33;;;12.53;;
7941;SDS011;4016;50.758;7.150;2023-02-23T14:40:05;27.97;;;15.07;;
7941;SDS011;4016;50.758;7.150;2023-02-23T14:50:27;29.60;;;14.77;;
7941;SDS011;4016;50.758;7.150;2023-02-23T14:55:33;26.93;;;14.10;;
7941;SDS011;4016;50.758;7.150;2023-02-23T15:00:40;29.67;;;15.53;;
7941;SDS011;4016;50.758;7.150;2023-02-23T15:05:43;27.10;;;14.90;;
7941;SDS011;4016;50.758;7.150;2023-02-23T15:10:52;28.00;;;15.07;;
7941;SDS011;4016;50.758;7.150;2023-02-23T15:16:02;30.07;;;14.83;;
7941;SDS011;4016;50.758;7.150;2023-02-23T15:21:07;27.33;;;13.87;;
7941;SDS011;4016;50.758;7.150;2023-02-23T15:26:26;24.87;;;12.43;;
7941;SDS011;4016;50.758;7.150;2023-02-23T15:31:30;24.73;;;13.97;;
7941;SDS011;4016;50.758;7.150;2023-02-23T15:36:31;22.27;;;13.60;;
7941;SDS011;4016;50.758;7.150;2023-02-23T15:41:35;23.53;;;13.93;;
7941;SDS011;4016;50.758;7.150;2023-02-23T15:46:37;22.20;;;13.23;;
7941;SDS011;4016;50.758;7.150;2023-02-23T15:51:41;18.87;;;11.07;;
7941;SDS011;4016;50.758;7.150;2023-02-23T15:56:49;22.13;;;12.33;;
7941;SDS011;4016;50.758;7.150;2023-02-23T16:01:57;21.30;;;11.67;;
7941;SDS011;4016;50.758;7.150;2023-02-23T16:07:12;21.90;;;11.57;;
7941;SDS011;4016;50.758;7.150;2023-02-23T16:12:16;17.07;;;10.60;;
7941;SDS011;4016;50.758;7.150;2023-02-23T16:17:41;20.67;;;11.67;;
7941;SDS011;4016;50.758;7.150;2023-02-23T16:22:44;18.80;;;10.73;;
7941;SDS011;4016;50.758;7.150;2023-02-23T16:27:46;20.33;;;11.60;;
7941;SDS011;4016;50.758;7.150;2023-02-23T16:33:02;18.97;;;11.53;;
7941;SDS011;4016;50.758;7.150;2023-02-23T16:38:13;22.00;;;12.07;;
7941;SDS011;4016;50.758;7.150;2023-02-23T16:43:19;20.33;;;10.73;;
7941;SDS011;4016;50.758;7.150;2023-02-23T16:48:20;15.10;;;10.10;;
7941;SDS011;4016;50.758;7.150;2023-02-23T16:53:21;20.17;;;11.13;;
7941;SDS011;4016;50.758;7.150;2023-02-23T16:58:23;20.03;;;10.70;;
7941;SDS011;4016;50.758;7.150;2023-02-23T17:03:25;19.03;;;11.83;;
7941;SDS011;4016;50.758;7.150;2023-02-23T17:08:26;17.30;;;10.37;;
7941;SDS011;4016;50.758;7.150;2023-02-23T17:13:28;18.60;;;11.70;;
7941;SDS011;4016;50.758;7.150;2023-02-23T17:18:33;22.50;;;12.47;;
7941;SDS011;4016;50.758;7.150;2023-02-23T17:23:36;22.43;;;11.87;;
7941;SDS011;4016;50.758;7.150;2023-02-23T17:28:47;21.30;;;12.17;;
7941;SDS011;4016;50.758;7.150;2023-02-23T17:33:47;21.53;;;12.17;;
7941;SDS011;4016;50.758;7.150;2023-02-23T17:38:48;20.77;;;11.10;;
7941;SDS011;4016;50.758;7.150;2023-02-23T17:43:48;20.07;;;11.83;;
7941;SDS011;4016;50.758;7.150;2023-02-23T17:48:49;22.33;;;13.30;;
7941;SDS011;4016;50.758;7.150;2023-02-23T17:53:49;22.83;;;13.63;;
7941;SDS011;4016;50.758;7.150;2023-02-23T17:58:50;26.20;;;13.93;;
7941;SDS011;4016;50.758;7.150;2023-02-23T18:03:50;28.80;;;15.77;;
7941;SDS011;4016;50.758;7.150;2023-02-23T18:08:50;29.40;;;15.50;;
7941;SDS011;4016;50.758;7.150;2023-02-23T18:13:51;23.90;;;13.33;;
7941;SDS011;4016;50.758;7.150;2023-02-23T18:18:51;27.83;;;14.60;;
7941;SDS011;4016;50.758;7.150;2023-02-23T18:23:52;23.53;;;12.97;;
7941;SDS011;4016;50.758;7.150;2023-02-23T18:28:53;26.67;;;14.03;;
7941;SDS011;4016;50.758;7.150;2023-02-23T18:33:55;24.30;;;12.57;;
7941;SDS011;4016;50.758;7.150;2023-02-23T18:38:57;31.77;;;14.77;;
7941;SDS011;4016;50.758;7.150;2023-02-23T18:44:00;25.73;;;13.03;;
7941;SDS011;4016;50.758;7.150;2023-02-23T18:49:02;27.63;;;14.17;;
7941;SDS011;4016;50.758;7.150;2023-02-23T18:54:03;25.63;;;13.17;;
7941;SDS011;4016;50.758;7.150;2023-02-23T18:59:09;26.73;;;14.53;;
7941;SDS011;4016;50.758;7.150;2023-02-23T19:04:11;24.47;;;12.93;;
7941;SDS011;4016;50.758;7.150;2023-02-23T19:09:11;25.47;;;14.53;;
7941;SDS011;4016;50.758;7.150;2023-02-23T19:14:14;21.87;;;12.40;;
7941;SDS011;4016;50.758;7.150;2023-02-23T19:19:17;24.63;;;12.53;;
7941;SDS011;4016;50.758;7.150;2023-02-23T19:24:18;24.47;;;13.37;;
7941;SDS011;4016;50.758;7.150;2023-02-23T19:29:19;25.60;;;13.30;;
7941;SDS011;4016;50.758;7.150;2023-02-23T19:34:20;23.10;;;13.27;;
7941;SDS011;4016;50.758;7.150;2023-02-23T19:39:20;28.57;;;14.33;;
7941;SDS011;4016;50.758;7.150;2023-02-23T19:44:20;27.20;;;14.43;;
7941;SDS011;4016;50.758;7.150;2023-02-23T19:49:21;30.23;;;14.37;;
7941;SDS011;4016;50.758;7.150;2023-02-23T19:54:22;29.23;;;14.17;;
7941;SDS011;4016;50.758;7.150;2023-02-23T19:59:24;21.70;;;11.77;;
7941;SDS011;4016;50.758;7.150;2023-02-23T20:04:27;25.40;;;12.40;;
7941;SDS011;4016;50.758;7.150;2023-02-23T20:09:28;23.30;;;12.80;;
7941;SDS011;4016;50.758;7.150;2023-02-23T20:14:28;25.00;;;11.70;;
7941;SDS011;4016;50.758;7.150;2023-02-23T20:19:29;18.50;;;10.70;;
7941;SDS011;4016;50.758;7.150;2023-02-23T20:24:30;23.10;;;11.40;;
7941;SDS011;4016;50.758;7.150;2023-02-23T20:29:30;21.70;;;11.53;;
7941;SDS011;4016;50.758;7.150;2023-02-23T20:34:32;23.07;;;12.10;;
7941;SDS011;4016;50.758;7.150;2023-02-23T20:39:34;22.67;;;12.13;;
7941;SDS011;4016;50.758;7.150;2023-02-23T20:44:34;22.17;;;12.00;;
7941;SDS011;4016;50.758;7.150;2023-02-23T20:49:35;23.70;;;12.00;;
7941;SDS011;4016;50.758;7.150;2023-02-23T20:54:36;25.07;;;12.90;;
7941;SDS011;4016;50.758;7.150;2023-02-23T20:59:37;24.47;;;11.77;;
7941;SDS011;4016;50.758;7.150;2023-02-23T21:04:38;26.70;;;13.53;;
7941;SDS011;4016;50.758;7.150;2023-02-23T21:09:39;22.17;;;11.47;;
7941;SDS011;4016;50.758;7.150;2023-02-23T21:14:40;24.70;;;11.53;;
7941;SDS011;4016;50.758;7.150;2023-02-23T21:19:40;18.97;;;11.40;;
7941;SDS011;4016;50.758;7.150;2023-02-23T21:24:41;23.60;;;12.33;;
7941;SDS011;4016;50.758;7.150;2023-02-23T21:29:42;25.67;;;12.27;;
7941;SDS011;4016;50.758;7.150;2023-02-23T21:34:43;24.27;;;12.47;;
7941;SDS011;4016;50.758;7.150;2023-02-23T21:39:44;23.93;;;11.47;;
7941;SDS011;4016;50.758;7.150;2023-02-23T21:44:45;20.30;;;10.87;;
7941;SDS011;4016;50.758;7.150;2023-02-23T21:49:47;17.50;;;9.60;;
7941;SDS011;4016;50.758;7.150;2023-02-23T21:54:51;20.30;;;10.20;;
7941;SDS011;4016;50.758;7.150;2023-02-23T21:59:51;22.50;;;11.93;;
7941;SDS011;4016;50.758;7.150;2023-02-23T22:04:52;18.63;;;10.20;;
7941;SDS011;4016;50.758;7.150;2023-02-23T22:09:53;23.53;;;10.43;;
7941;SDS011;4016;50.758;7.150;2023-02-23T22:14:53;16.63;;;9.37;;
7941;SDS011;4016;50.758;7.150;2023-02-23T22:19:54;16.50;;;9.40;;
7941;SDS011;4016;50.758;7.150;2023-02-23T22:24:54;16.93;;;10.40;;
7941;SDS011;4016;50.758;7.150;2023-02-23T22:29:55;19.90;;;11.13;;
7941;SDS011;4016;50.758;7.150;2023-02-23T22:34:58;22.50;;;12.70;;
7941;SDS011;4016;50.758;7.150;2023-02-23T22:40:00;20.60;;;11.17;;
7941;SDS011;4016;50.758;7.150;2023-02-23T22:45:00;19.37;;;10.87;;
7941;SDS011;4016;50.758;7.150;2023-02-23T22:50:00;21.53;;;11.40;;
7941;SDS011;4016;50.758;7.150;2023-02-23T22:55:01;21.50;;;11.53;;
7941;SDS011;4016;50.758;7.150;2023-02-23T23:00:03;18.67;;;10.90;;
7941;SDS011;4016;50.758;7.150;2023-02-23T23:05:06;16.37;;;10.57;;
7941;SDS011;4016;50.758;7.150;2023-02-23T23:10:07;22.27;;;11.43;;
7941;SDS011;4016;50.758;7.150;2023-02-23T23:15:09;23.00;;;11.60;;
7941;SDS011;4016;50.758;7.150;2023-02-23T23:20:18;22.63;;;11.87;;
7941;SDS011;4016;50.758;7.150;2023-02-23T23:25:24;24.30;;;11.53;;
7941;SDS011;4016;50.758;7.150;2023-02-23T23:30:25;22.07;;;11.30;;
7941;SDS011;4016;50.758;7.150;2023-02-23T23:35:28;16.27;;;9.80;;
7941;SDS011;4016;50.758;7.150;2023-02-23T23:40:28;23.73;;;12.80;;
7941;SDS011;4016;50.758;7.150;2023-02-23T23:45:34;16.80;;;10.60;;
7941;SDS011;4016;50.758;7.150;2023-02-23T23:50:38;24.63;;;10.90;;
7941;SDS011;4016;50.758;7.150;2023-02-23T23:55:38;18.57;;;9.60;;
